Time;durP1;ratioP1;P1;durP2;ratioP2;P2;SDS_P1;SDS_P2;PMS_P1;PMS_P2;Temp;Humidity;BMP_temperature;BMP_pressure;BME280_temperature;BME280_humidity;BME280_pressure;Samples;Min_cycle;Max_cycle;Signal;HPM_P1;HPM_P2
2024/01/12 00:01:29;;;;;;;25.20;12.40;;;;;;;3.70;86.50;100107.73;107982;1289;22005;-64
2024/01/12 00:03:55;;;;;;;26.80;12.50;;;;;;;3.62;88.71;100108.33;107995;1289;21998;-66
2024/01/12 00:06:20;;;;;;;22.90;12.00;;;;;;;3.66;87.64;100107.67;107992;1289;21992;-66
2024/01/12 00:08:46;;;;;;;24.50;13.20;;;;;;;3.57;87.05;100101.85;107992;1289;23058;-64
2024/01/12 00:11:11;;;;;;;25.60;13.30;;;;;;;3.62;86.35;100098.94;107959;1289;21991;-64
2024/01/12 00:13:38;;;;;;;23.40;12.50;;;;;;;3.67;85.61;100099.17;107983;1289;21997;-65
2024/01/12 00:16:06;;;;;;;27.10;13.50;;;;;;;3.66;85.13;100101.25;109980;1289;22002;-64
2024/01/12 00:18:32;;;;;;;27.10;14.20;;;;;;;3.69;84.73;100103.38;109975;1289;21966;-67
2024/01/12 00:20:57;;;;;;;26.20;13.40;;;;;;;3.59;84.81;100103.26;108361;1279;24189;-64
2024/01/12 00:23:23;;;;;;;29.40;14.00;;;;;;;3.64;84.63;100099.16;107875;1289;21993;-64
2024/01/12 00:25:48;;;;;;;25.40;13.30;;;;;;;3.67;84.03;100097.28;107873;1280;22012;-66
2024/01/12 00:28:14;;;;;;;25.50;13.30;;;;;;;3.71;83.52;100100.10;107989;1289;22002;-64
2024/01/12 00:30:39;;;;;;;31.10;14.40;;;;;;;3.74;82.82;100093.19;108007;1289;21990;-66
2024/01/12 00:33:07;;;;;;;27.20;13.40;;;;;;;3.71;82.66;100088.46;108003;1289;22003;-64
2024/01/12 00:35:33;;;;;;;27.70;14.70;;;;;;;3.67;82.41;100092.23;107289;1279;1002917;-66
2024/01/12 00:37:59;;;;;;;31.20;14.90;;;;;;;3.60;82.59;100090.08;107269;1289;1002916;-65
2024/01/12 00:40:25;;;;;;;28.60;14.50;;;;;;;3.62;82.64;100092.34;107971;1277;21990;-66
2024/01/12 00:42:50;;;;;;;28.80;13.10;;;;;;;3.64;82.21;100095.33;107987;1280;21992;-63
2024/01/12 00:45:16;;;;;;;31.00;15.20;;;;;;;3.62;82.15;100091.49;107985;1287;21995;-64
2024/01/12 00:47:42;;;;;;;29.20;14.50;;;;;;;3.64;81.57;100091.68;108067;1289;22035;-67
2024/01/12 00:50:09;;;;;;;30.90;13.80;;;;;;;3.64;81.46;100093.07;108012;1289;22002;-64
2024/01/12 00:52:35;;;;;;;27.50;13.90;;;;;;;3.64;81.51;100093.94;108049;1289;22054;-64
2024/01/12 00:55:00;;;;;;;24.50;13.00;;;;;;;3.64;81.22;100097.92;108018;1289;21993;-64
2024/01/12 00:57:26;;;;;;;24.70;13.20;;;;;;;3.55;81.50;100100.42;107985;1287;22016;-66
2024/01/12 00:59:52;;;;;;;27.90;14.80;;;;;;;3.46;82.08;100099.45;107954;1289;22466;-66
2024/01/12 01:02:17;;;;;;;28.20;14.20;;;;;;;3.47;82.39;100091.66;107999;1289;22449;-64
2024/01/12 01:04:43;;;;;;;31.00;14.40;;;;;;;3.55;82.06;100091.06;108047;1289;21995;-63
2024/01/12 01:07:08;;;;;;;35.60;16.60;;;;;;;3.66;81.03;100092.41;108002;1289;22100;-64
2024/01/12 01:09:34;;;;;;;35.30;16.30;;;;;;;3.66;80.76;100086.85;107976;1278;21992;-64
2024/01/12 01:11:59;;;;;;;35.50;16.10;;;;;;;3.69;80.38;100083.24;107992;1289;22450;-64
2024/01/12 01:14:25;;;;;;;41.80;16.90;;;;;;;3.74;80.03;100081.55;107957;1286;22001;-66
2024/01/12 01:16:53;;;;;;;33.30;16.50;;;;;;;3.73;79.79;100079.82;107989;1280;22004;-66
2024/01/12 01:19:20;;;;;;;26.20;13.70;;;;;;;3.72;79.53;100075.13;108009;1285;22087;-65
2024/01/12 01:21:45;;;;;;;24.30;13.40;;;;;;;3.73;79.56;100072.88;107322;1289;1002396;-65
2024/01/12 01:24:11;;;;;;;30.00;15.20;;;;;;;3.71;79.53;100071.64;108078;1276;22002;-64
2024/01/12 01:26:36;;;;;;;27.40;14.60;;;;;;;3.70;79.38;100069.38;108051;1289;22799;-64
2024/01/12 01:29:02;;;;;;;30.20;14.80;;;;;;;3.74;79.28;100071.33;107977;1289;21999;-64
2024/01/12 01:31:28;;;;;;;29.80;14.30;;;;;;;3.71;79.26;100067.81;108194;1277;22035;-66
2024/01/12 01:33:54;;;;;;;34.00;16.20;;;;;;;3.68;79.39;100070.40;108280;1287;22007;-64
2024/01/12 01:36:19;;;;;;;31.60;16.00;;;;;;;3.70;79.40;100064.52;108117;1281;21993;-63
2024/01/12 01:38:45;;;;;;;30.40;16.30;;;;;;;3.76;79.33;100067.86;108135;1287;21992;-65
2024/01/12 01:41:13;;;;;;;34.90;16.50;;;;;;;3.76;79.12;100066.30;108142;1287;22059;-66
2024/01/12 01:43:39;;;;;;;33.50;16.10;;;;;;;3.74;78.97;100062.48;107407;1287;1002358;-63
2024/01/12 01:46:05;;;;;;;35.00;17.70;;;;;;;3.79;78.70;100064.09;108152;1287;21980;-67
2024/01/12 01:48:30;;;;;;;32.80;16.10;;;;;;;3.75;78.84;100064.73;108132;1287;22021;-67
2024/01/12 01:50:56;;;;;;;35.50;17.00;;;;;;;3.72;78.97;100065.73;108034;1287;21996;-66
2024/01/12 01:53:21;;;;;;;35.70;16.00;;;;;;;3.73;79.10;100072.35;108138;1276;22109;-67
2024/01/12 01:55:47;;;;;;;36.60;18.40;;;;;;;3.78;78.78;100079.34;108006;1283;21992;-66
2024/01/12 01:58:12;;;;;;;36.40;17.70;;;;;;;3.72;78.84;100078.75;108133;1287;21997;-65
2024/01/12 02:00:38;;;;;;;37.80;18.10;;;;;;;3.75;78.80;100079.48;108028;1283;21993;-64
2024/01/12 02:03:04;;;;;;;31.30;15.70;;;;;;;3.74;78.76;100076.01;108055;1282;21987;-67
2024/01/12 02:05:30;;;;;;;33.80;16.10;;;;;;;3.74;78.82;100076.86;107727;1286;22027;-66
2024/01/12 02:07:56;;;;;;;31.40;15.70;;;;;;;3.78;78.63;100076.91;108165;1283;21994;-66
2024/01/12 02:10:22;;;;;;;36.50;16.80;;;;;;;3.78;78.47;100075.18;107467;1287;1003002;-66
2024/01/12 02:12:48;;;;;;;37.60;18.50;;;;;;;3.78;78.52;100071.70;108186;1287;22026;-66
2024/01/12 02:15:14;;;;;;;37.70;17.60;;;;;;;3.80;78.26;100071.02;108157;1287;21983;-67
2024/01/12 02:17:40;;;;;;;37.80;17.60;;;;;;;3.78;78.41;100077.95;108028;1283;21988;-67
2024/01/12 02:20:06;;;;;;;34.30;17.10;;;;;;;3.69;78.99;100075.61;108041;1287;22030;-67
2024/01/12 02:22:32;;;;;;;35.70;17.20;;;;;;;3.70;78.96;100077.70;108180;1287;21989;-67
2024/01/12 02:24:58;;;;;;;34.70;16.90;;;;;;;3.73;79.11;100078.08;108159;1284;21993;-66
2024/01/12 02:27:24;;;;;;;33.30;17.10;;;;;;;3.79;78.66;100075.88;108090;1287;21993;-66
2024/01/12 02:29:53;;;;;;;36.70;17.60;;;;;;;3.80;78.48;100073.29;108199;1281;22036;-64
2024/01/12 02:32:18;;;;;;;35.80;17.90;;;;;;;3.74;78.63;100071.67;107280;1289;1002739;-64
2024/01/12 02:34:44;;;;;;;36.50;18.00;;;;;;;3.73;78.44;100071.14;107985;1289;21992;-66
2024/01/12 02:37:09;;;;;;;31.50;16.00;;;;;;;3.78;78.03;100072.05;107230;1289;1002591;-65
2024/01/12 02:39:35;;;;;;;36.50;17.70;;;;;;;3.79;78.18;100068.59;107271;1283;1003016;-64
2024/01/12 02:42:00;;;;;;;33.60;17.00;;;;;;;3.81;77.83;100066.19;107997;1289;21985;-64
2024/01/12 02:44:26;;;;;;;30.50;17.30;;;;;;;3.78;77.92;100068.05;107986;1289;22048;-64
2024/01/12 02:46:52;;;;;;;34.60;17.50;;;;;;;3.81;77.97;100071.55;107236;1289;1002954;-65
2024/01/12 02:49:18;;;;;;;31.50;16.20;;;;;;;3.79;77.96;100070.67;108008;1289;21989;-63
2024/01/12 02:51:43;;;;;;;33.80;17.30;;;;;;;3.74;78.23;100072.55;107994;1289;21998;-68
2024/01/12 02:54:09;;;;;;;34.30;16.90;;;;;;;3.70;78.58;100073.71;107261;1283;1002434;-66
2024/01/12 02:56:35;;;;;;;37.10;17.60;;;;;;;3.69;78.78;100070.58;107988;1289;22115;-64
2024/01/12 02:59:00;;;;;;;37.40;18.40;;;;;;;3.71;78.81;100080.84;108007;1289;21997;-65
2024/01/12 03:01:27;;;;;;;37.20;18.00;;;;;;;3.75;78.53;100079.49;107992;1289;21982;-63
2024/01/12 03:03:53;;;;;;;37.60;17.20;;;;;;;3.75;79.21;100082.95;107998;1289;21997;-64
2024/01/12 03:06:19;;;;;;;39.20;19.40;;;;;;;3.76;80.51;100088.16;107994;1283;21993;-64
2024/01/12 03:08:44;;;;;;;33.50;17.90;;;;;;;3.77;79.08;100088.52;108006;1289;22040;-66
2024/01/12 03:11:11;;;;;;;39.00;18.30;;;;;;;3.75;78.97;100086.77;107982;1283;22030;-66
2024/01/12 03:13:37;;;;;;;34.50;17.80;;;;;;;3.73;79.00;100089.35;107987;1280;21992;-64
2024/01/12 03:16:03;;;;;;;32.50;16.50;;;;;;;3.77;78.68;100092.86;107278;1287;1002711;-66
2024/01/12 03:18:31;;;;;;;33.70;16.50;;;;;;;3.79;78.58;100088.54;108051;1289;21995;-66
2024/01/12 03:20:57;;;;;;;33.60;17.30;;;;;;;3.74;78.83;100093.52;108022;1289;22074;-63
2024/01/12 03:23:23;;;;;;;33.90;16.60;;;;;;;3.76;78.84;100098.41;107283;1289;1002747;-66
2024/01/12 03:25:49;;;;;;;43.00;18.80;;;;;;;3.77;78.82;100101.72;107994;1283;21999;-63
2024/01/12 03:28:15;;;;;;;32.80;16.90;;;;;;;3.86;78.39;100105.81;107971;1277;21995;-65
2024/01/12 03:30:41;;;;;;;33.40;17.50;;;;;;;3.85;78.24;100106.14;108000;1289;22455;-63
2024/01/12 03:33:08;;;;;;;32.70;15.30;;;;;;;3.86;78.28;100114.48;107218;1284;1002657;-66
2024/01/12 03:35:35;;;;;;;35.20;16.90;;;;;;;3.92;78.06;100118.02;108063;1289;22005;-66
2024/01/12 03:38:01;;;;;;;34.90;15.50;;;;;;;3.97;77.74;100120.16;108090;1289;21993;-67
2024/01/12 03:40:27;;;;;;;30.60;15.50;;;;;;;3.98;77.68;100121.73;108003;1287;22050;-66
2024/01/12 03:42:52;;;;;;;33.60;16.10;;;;;;;3.93;77.48;100122.90;108025;1278;21987;-66
2024/01/12 03:45:18;;;;;;;28.90;15.50;;;;;;;3.95;77.71;100132.83;107986;1280;22271;-65
2024/01/12 03:47:43;;;;;;;32.20;15.50;;;;;;;3.96;77.65;100135.43;107998;1287;21996;-63
2024/01/12 03:50:09;;;;;;;31.00;17.00;;;;;;;3.93;78.08;100143.73;108030;1278;21987;-63
2024/01/12 03:52:35;;;;;;;29.70;15.00;;;;;;;3.93;78.48;100152.59;107990;1289;22007;-66
2024/01/12 03:55:01;;;;;;;37.30;17.30;;;;;;;3.87;78.74;100157.89;108026;1289;21990;-64
2024/01/12 03:57:26;;;;;;;33.40;16.50;;;;;;;3.97;78.74;100172.95;108042;1289;22477;-63
2024/01/12 03:59:52;;;;;;;32.20;15.60;;;;;;;4.11;78.13;100175.19;107998;1287;21991;-66
2024/01/12 04:02:18;;;;;;;27.20;13.00;;;;;;;4.10;78.30;100182.63;107972;1289;22036;-65
2024/01/12 04:04:44;;;;;;;23.30;9.90;;;;;;;4.10;77.47;100196.70;107996;1282;21994;-66
2024/01/12 04:07:09;;;;;;;12.30;5.80;;;;;;;3.97;74.47;100197.58;107993;1289;22000;-65
2024/01/12 04:09:35;;;;;;;8.30;3.60;;;;;;;3.78;71.32;100202.41;107961;1289;21995;-63
2024/01/12 04:12:01;;;;;;;8.90;2.00;;;;;;;3.63;69.01;100211.41;107954;1289;21987;-62
2024/01/12 04:14:27;;;;;;;3.00;1.20;;;;;;;3.46;66.18;100225.75;107187;1277;1002645;-66
2024/01/12 04:16:52;;;;;;;5.00;1.40;;;;;;;3.28;64.19;100227.05;107212;1289;1002502;-66
2024/01/12 04:19:18;;;;;;;4.90;1.40;;;;;;;3.16;64.02;100233.98;107961;1283;22009;-66
2024/01/12 04:21:43;;;;;;;5.50;1.00;;;;;;;3.05;63.96;100241.09;107945;1289;22004;-63
2024/01/12 04:24:09;;;;;;;2.10;0.60;;;;;;;2.94;62.63;100240.73;107930;1289;21994;-63
2024/01/12 04:26:34;;;;;;;1.50;0.50;;;;;;;2.85;61.87;100253.41;107969;1276;22036;-62
2024/01/12 04:29:00;;;;;;;3.70;0.80;;;;;;;2.74;60.19;100262.59;107220;1289;1002839;-61
2024/01/12 04:31:25;;;;;;;1.00;0.40;;;;;;;2.65;60.74;100268.29;107280;1288;1003158;-63
2024/01/12 04:33:51;;;;;;;5.00;0.60;;;;;;;2.57;60.51;100274.58;108085;1288;21994;-66
2024/01/12 04:36:21;;;;;;;2.90;0.60;;;;;;;2.47;59.67;100278.89;108089;1283;21993;-62
2024/01/12 04:38:47;;;;;;;1.10;0.40;;;;;;;2.40;59.38;100286.90;108127;1288;21990;-65
2024/01/12 04:41:13;;;;;;;1.10;0.30;;;;;;;2.32;58.52;100294.02;108076;1278;21997;-62
2024/01/12 04:43:38;;;;;;;4.60;0.90;;;;;;;2.23;58.10;100295.05;108089;1288;22001;-65
2024/01/12 04:46:04;;;;;;;2.80;0.40;;;;;;;2.15;57.83;100298.52;108103;1288;21993;-62
2024/01/12 04:48:29;;;;;;;4.20;0.40;;;;;;;2.05;57.35;100304.36;107954;1288;22025;-64
2024/01/12 04:50:55;;;;;;;3.10;1.10;;;;;;;1.96;56.89;100310.40;108063;1288;22028;-66
2024/01/12 04:53:21;;;;;;;1.30;0.50;;;;;;;1.92;57.19;100311.20;107315;1283;1002592;-63
2024/01/12 04:55:46;;;;;;;2.10;0.50;;;;;;;1.88;57.26;100316.99;107387;1288;1002406;-65
2024/01/12 04:58:11;;;;;;;1.70;0.50;;;;;;;1.86;57.69;100319.53;108061;1286;21987;-65
2024/01/12 05:00:37;;;;;;;1.60;0.50;;;;;;;1.85;57.54;100322.45;108097;1283;22000;-62
2024/01/12 05:03:03;;;;;;;2.10;0.40;;;;;;;1.82;57.47;100324.80;108046;1283;21992;-65
2024/01/12 05:05:29;;;;;;;1.00;0.40;;;;;;;1.80;57.78;100337.58;107381;1287;1003119;-61
2024/01/12 05:07:55;;;;;;;4.30;0.80;;;;;;;1.77;57.85;100348.77;108063;1288;21990;-62
2024/01/12 05:10:22;;;;;;;1.30;0.30;;;;;;;1.74;57.48;100354.73;108083;1288;21987;-65
2024/01/12 05:12:48;;;;;;;3.80;0.50;;;;;;;1.70;56.99;100357.23;108133;1287;22047;-65
2024/01/12 05:15:13;;;;;;;1.30;0.50;;;;;;;1.66;56.57;100363.89;108146;1283;21996;-65
2024/01/12 05:17:39;;;;;;;4.50;0.60;;;;;;;1.65;56.76;100373.55;107416;1288;1002419;-62
2024/01/12 05:20:06;;;;;;;7.70;1.60;;;;;;;1.61;56.64;100376.92;107392;1281;1003205;-65
2024/01/12 05:22:33;;;;;;;5.50;1.50;;;;;;;1.58;56.49;100385.14;108135;1288;21984;-62
2024/01/12 05:24:59;;;;;;;2.30;1.00;;;;;;;1.51;56.13;100389.99;108156;1280;22018;-64
2024/01/12 05:27:25;;;;;;;5.80;1.60;;;;;;;1.45;56.18;100394.51;108158;1283;21990;-61
2024/01/12 05:29:50;;;;;;;12.00;3.80;;;;;;;1.38;55.91;100395.55;108117;1283;21999;-62
2024/01/12 05:32:16;;;;;;;3.50;1.90;;;;;;;1.32;55.54;100399.55;107479;1287;1002930;-60
2024/01/12 05:34:41;;;;;;;1.80;0.60;;;;;;;1.27;55.85;100401.15;108222;1287;22461;-60
2024/01/12 05:37:07;;;;;;;4.70;0.70;;;;;;;1.18;55.37;100404.20;108137;1287;21994;-62
2024/01/12 05:39:32;;;;;;;3.20;0.40;;;;;;;1.13;56.25;100406.30;108125;1287;21987;-63
2024/01/12 05:41:58;;;;;;;5.00;0.60;;;;;;;1.18;59.85;100413.03;108150;1278;21994;-64
2024/01/12 05:44:23;;;;;;;6.30;1.30;;;;;;;1.35;61.50;100426.41;107426;1287;1002659;-63
2024/01/12 05:46:49;;;;;;;7.50;0.70;;;;;;;1.42;62.35;100437.32;108197;1287;21987;-63
2024/01/12 05:49:14;;;;;;;9.50;0.70;;;;;;;1.50;62.27;100449.30;108199;1283;23741;-63
2024/01/12 05:51:40;;;;;;;2.80;0.80;;;;;;;1.46;62.23;100459.04;108135;1282;22001;-65
2024/01/12 05:54:05;;;;;;;5.10;1.00;;;;;;;1.41;62.85;100466.01;108073;1287;21994;-64
2024/01/12 05:56:31;;;;;;;10.80;1.10;;;;;;;1.39;63.90;100474.93;108161;1277;21995;-66
2024/01/12 05:58:56;;;;;;;6.40;0.80;;;;;;;1.46;63.84;100480.49;107375;1287;1002795;-63
2024/01/12 06:01:22;;;;;;;7.20;1.00;;;;;;;1.38;61.61;100489.80;108138;1276;21993;-64
2024/01/12 06:03:47;;;;;;;6.00;0.90;;;;;;;1.23;58.48;100496.30;108151;1280;21996;-63
2024/01/12 06:06:13;;;;;;;4.80;0.90;;;;;;;0.93;55.80;100502.88;108115;1287;22002;-62
2024/01/12 06:08:41;;;;;;;3.80;1.00;;;;;;;0.55;54.30;100508.86;108311;1287;21982;-62
2024/01/12 06:11:06;;;;;;;12.40;1.10;;;;;;;0.28;54.42;100519.94;107373;1287;1003563;-62
2024/01/12 06:13:32;;;;;;;5.30;1.00;;;;;;;0.07;54.39;100522.90;107498;1284;1002562;-62
2024/01/12 06:15:58;;;;;;;8.20;1.10;;;;;;;-0.13;54.10;100525.49;108124;1277;21998;-65
2024/01/12 06:18:23;;;;;;;8.70;1.00;;;;;;;-0.27;53.86;100528.66;108119;1287;21993;-63
2024/01/12 06:20:50;;;;;;;6.20;1.20;;;;;;;-0.37;54.23;100537.64;107979;1287;23050;-61
2024/01/12 06:23:16;;;;;;;5.40;1.00;;;;;;;-0.44;54.58;100540.33;108110;1283;21987;-64
2024/01/12 06:25:41;;;;;;;3.10;0.70;;;;;;;-0.49;54.42;100546.34;108083;1281;21987;-62
2024/01/12 06:28:07;;;;;;;6.80;0.70;;;;;;;-0.48;55.07;100541.75;108069;1287;22563;-66
2024/01/12 06:30:33;;;;;;;6.70;0.70;;;;;;;-0.47;55.31;100546.25;108167;1286;21995;-62
2024/01/12 06:32:59;;;;;;;1.90;0.50;;;;;;;-0.47;55.33;100554.03;108112;1287;21997;-62
2024/01/12 06:35:25;;;;;;;4.40;0.70;;;;;;;-0.44;55.27;100553.60;107329;1287;1002348;-61
2024/01/12 06:37:50;;;;;;;1.70;0.60;;;;;;;-0.42;55.08;100554.00;107335;1287;1002277;-64
2024/01/12 06:40:16;;;;;;;4.00;0.50;;;;;;;-0.41;54.38;100566.98;108196;1277;21996;-61
2024/01/12 06:42:42;;;;;;;3.20;0.70;;;;;;;-0.45;53.78;100569.09;108196;1287;23120;-61
2024/01/12 06:45:09;;;;;;;3.00;0.50;;;;;;;-0.52;53.30;100583.85;108083;1283;21980;-63
2024/01/12 06:47:35;;;;;;;2.90;0.40;;;;;;;-0.56;53.30;100584.90;108234;1280;21988;-63
2024/01/12 06:50:01;;;;;;;2.90;0.70;;;;;;;-0.58;53.49;100585.67;108219;1287;21998;-63
2024/01/12 06:52:26;;;;;;;7.60;0.90;;;;;;;-0.62;53.35;100584.17;108231;1287;21989;-62
2024/01/12 06:54:53;;;;;;;6.20;0.70;;;;;;;-0.64;52.98;100585.80;108169;1277;21989;-62
2024/01/12 06:57:21;;;;;;;4.00;0.70;;;;;;;-0.71;52.60;100593.48;107999;1287;22003;-62
2024/01/12 06:59:47;;;;;;;1.40;0.50;;;;;;;-0.79;52.22;100594.73;108122;1277;21956;-62
2024/01/12 07:02:12;;;;;;;2.80;0.70;;;;;;;-0.85;52.25;100595.91;107368;1287;1002778;-62
2024/01/12 07:04:38;;;;;;;3.10;0.60;;;;;;;-0.86;52.62;100604.65;107374;1287;1002897;-62
2024/01/12 07:07:06;;;;;;;4.10;0.60;;;;;;;-0.88;52.79;100608.73;107361;1287;1002574;-64
2024/01/12 07:09:32;;;;;;;1.80;0.60;;;;;;;-0.90;52.79;100610.04;108122;1287;21985;-63
2024/01/12 07:11:58;;;;;;;1.70;0.70;;;;;;;-0.86;53.23;100608.94;108098;1281;22030;-65
2024/01/12 07:14:23;;;;;;;6.40;1.30;;;;;;;-0.82;53.64;100610.50;108252;1287;21995;-63
2024/01/12 07:16:49;;;;;;;5.50;0.70;;;;;;;-0.78;53.38;100610.83;108284;1276;21991;-62
2024/01/12 07:19:15;;;;;;;7.30;1.30;;;;;;;-0.82;53.23;100607.02;108274;1287;21984;-63
2024/01/12 07:21:42;;;;;;;4.50;0.50;;;;;;;-0.87;52.95;100616.85;108353;1283;23742;-63
2024/01/12 07:24:07;;;;;;;2.90;0.80;;;;;;;-0.92;52.74;100623.40;108162;1283;21987;-62
2024/01/12 07:26:33;;;;;;;3.30;0.90;;;;;;;-0.93;52.78;100613.20;108232;1287;21992;-65
2024/01/12 07:28:59;;;;;;;2.30;0.50;;;;;;;-0.87;53.57;100607.55;108155;1277;23046;-64
2024/01/12 07:31:25;;;;;;;4.50;1.00;;;;;;;-0.80;53.94;100611.26;108194;1283;21987;-63
2024/01/12 07:33:50;;;;;;;4.10;0.90;;;;;;;-0.80;53.18;100625.02;107544;1280;1015102;-63
2024/01/12 07:36:16;;;;;;;1.00;0.50;;;;;;;-0.87;52.47;100634.77;108158;1287;22027;-63
2024/01/12 07:38:42;;;;;;;2.40;0.50;;;;;;;-0.87;52.92;100649.23;108133;1287;22034;-65
2024/01/12 07:41:07;;;;;;;3.90;0.90;;;;;;;-0.89;52.41;100657.27;108028;1287;22003;-64
2024/01/12 07:43:33;;;;;;;5.60;0.60;;;;;;;-0.90;52.28;100662.92;108082;1287;160706;-65
2024/01/12 07:45:59;;;;;;;2.10;0.50;;;;;;;-0.89;52.38;100677.25;107388;1287;1002468;-64
2024/01/12 07:48:25;;;;;;;2.80;0.50;;;;;;;-0.87;52.22;100690.74;107377;1287;1002962;-65
2024/01/12 07:50:51;;;;;;;1.10;0.50;;;;;;;-0.80;52.74;100698.63;108121;1287;21987;-64
2024/01/12 07:53:16;;;;;;;3.00;0.50;;;;;;;-0.74;52.76;100700.94;108005;1280;21992;-63
2024/01/12 07:55:42;;;;;;;2.10;0.70;;;;;;;-0.69;52.78;100703.52;108108;1286;22001;-65
2024/01/12 07:58:07;;;;;;;2.90;0.90;;;;;;;-0.64;52.64;100702.52;108063;1280;22006;-64
2024/01/12 08:00:33;;;;;;;4.90;0.60;;;;;;;-0.61;52.50;100706.08;108133;1286;22008;-63
2024/01/12 08:02:58;;;;;;;6.10;0.70;;;;;;;-0.62;52.02;100705.67;108072;1286;21986;-67
2024/01/12 08:05:24;;;;;;;4.20;0.90;;;;;;;-0.63;51.87;100711.34;107338;1280;1002949;-65
2024/01/12 08:07:50;;;;;;;5.40;1.00;;;;;;;-0.60;52.08;100711.97;108097;1286;21986;-64
2024/01/12 08:10:16;;;;;;;2.80;1.00;;;;;;;-0.62;51.29;100711.36;108099;1286;21992;-65
2024/01/12 08:12:42;;;;;;;2.90;0.60;;;;;;;-0.61;51.65;100714.17;107346;1286;1003400;-66
2024/01/12 08:15:09;;;;;;;7.40;0.70;;;;;;;-0.60;51.63;100716.61;108183;1286;21993;-63
2024/01/12 08:17:36;;;;;;;4.10;0.70;;;;;;;-0.62;51.39;100720.02;108131;1286;23715;-64
2024/01/12 08:20:02;;;;;;;2.40;0.70;;;;;;;-0.59;51.69;100729.41;108108;1286;22014;-63
2024/01/12 08:22:29;;;;;;;5.60;0.70;;;;;;;-0.54;51.69;100726.34;108133;1286;22000;-64
2024/01/12 08:24:54;;;;;;;4.90;0.90;;;;;;;-0.47;51.56;100728.34;108110;1286;22016;-63
2024/01/12 08:27:20;;;;;;;2.00;0.70;;;;;;;-0.41;51.78;100728.52;107364;1286;1002367;-65
2024/01/12 08:29:45;;;;;;;5.10;0.80;;;;;;;-0.38;51.62;100732.29;108083;1286;22005;-63
2024/01/12 08:32:11;;;;;;;1.70;0.60;;;;;;;-0.31;51.59;100734.44;108188;1286;21994;-64
2024/01/12 08:34:39;;;;;;;3.40;0.80;;;;;;;-0.26;51.80;100739.30;108125;1277;21998;-63
2024/01/12 08:37:06;;;;;;;3.90;1.10;;;;;;;-0.20;51.30;100742.41;107378;1279;1002777;-63
2024/01/12 08:39:32;;;;;;;7.40;0.90;;;;;;;-0.21;51.21;100746.20;108093;1286;21983;-64
2024/01/12 08:41:58;;;;;;;2.50;0.90;;;;;;;-0.21;50.73;100752.72;108095;1286;22456;-64
2024/01/12 08:44:24;;;;;;;1.60;0.70;;;;;;;-0.22;50.91;100749.77;107354;1286;1002607;-65
2024/01/12 08:46:52;;;;;;;2.30;0.60;;;;;;;-0.20;50.49;100751.92;107356;1284;1002961;-65
2024/01/12 08:49:18;;;;;;;1.80;0.60;;;;;;;-0.18;50.94;100752.31;108284;1286;1002309;-65
2024/01/12 08:51:44;;;;;;;3.60;0.70;;;;;;;-0.15;50.63;100754.34;108041;1286;21997;-64
2024/01/12 08:54:09;;;;;;;4.00;0.70;;;;;;;-0.11;50.83;100757.79;107302;1284;1002499;-64
2024/01/12 08:56:35;;;;;;;4.30;0.90;;;;;;;-0.03;50.92;100760.30;108073;1284;21990;-64
2024/01/12 08:59:00;;;;;;;3.40;0.80;;;;;;;-0.02;50.67;100765.20;108080;1281;21992;-65
2024/01/12 09:01:26;;;;;;;1.90;0.70;;;;;;;-0.05;50.06;100773.55;108079;1286;21987;-65
2024/01/12 09:03:51;;;;;;;4.80;1.10;;;;;;;-0.06;50.20;100771.25;108065;1286;21987;-65
2024/01/12 09:06:17;;;;;;;3.50;0.90;;;;;;;-0.05;50.17;100779.39;108105;1280;21997;-65
2024/01/12 09:08:42;;;;;;;3.80;0.90;;;;;;;0.01;50.38;100787.54;108085;1286;22018;-65
2024/01/12 09:11:10;;;;;;;4.20;0.70;;;;;;;0.08;50.93;100788.00;108073;1277;21979;-64
2024/01/12 09:13:36;;;;;;;3.60;0.90;;;;;;;0.14;50.51;100787.85;108150;1283;21984;-65
2024/01/12 09:16:02;;;;;;;6.90;1.10;;;;;;;0.16;50.07;100791.02;108077;1278;23765;-65
2024/01/12 09:18:28;;;;;;;3.30;0.70;;;;;;;0.17;50.26;100789.85;108067;1286;21996;-65
2024/01/12 09:20:56;;;;;;;2.30;0.80;;;;;;;0.16;49.93;100790.86;108190;1284;22244;-64
2024/01/12 09:23:22;;;;;;;4.30;1.00;;;;;;;0.21;50.07;100796.06;107530;1283;1003043;-65
2024/01/12 09:25:49;;;;;;;4.50;0.90;;;;;;;0.24;50.08;100792.36;108106;1286;21986;-64
2024/01/12 09:28:15;;;;;;;2.70;0.70;;;;;;;0.32;50.43;100801.63;108084;1277;22021;-64
2024/01/12 09:30:41;;;;;;;3.60;0.90;;;;;;;0.43;51.06;100802.52;108062;1286;22051;-65
2024/01/12 09:33:06;;;;;;;3.60;1.00;;;;;;;0.53;50.86;100807.89;108156;1288;22011;-65
2024/01/12 09:35:32;;;;;;;3.30;0.60;;;;;;;0.58;50.46;100807.90;108050;1288;22003;-65
2024/01/12 09:38:00;;;;;;;3.30;1.00;;;;;;;0.61;50.07;100809.56;108087;1283;22027;-65
2024/01/12 09:40:25;;;;;;;1.80;0.70;;;;;;;0.64;50.30;100802.92;108030;1283;22001;-66
2024/01/12 09:42:51;;;;;;;9.90;2.40;;;;;;;0.73;53.12;100809.09;107965;1288;21998;-67
2024/01/12 09:45:17;;;;;;;4.20;0.90;;;;;;;1.03;54.49;100809.06;107825;1288;21997;-65
2024/01/12 09:47:42;;;;;;;8.60;1.90;;;;;;;1.24;52.16;100821.33;108092;1288;21991;-65
2024/01/12 09:50:11;;;;;;;2.30;1.10;;;;;;;1.26;51.24;100816.92;108074;1288;22083;-64
2024/01/12 09:52:37;;;;;;;3.40;1.00;;;;;;;1.23;50.49;100817.84;108071;1288;21986;-65
2024/01/12 09:55:05;;;;;;;4.30;1.20;;;;;;;1.17;50.21;100826.48;108099;1283;21983;-65
2024/01/12 09:57:33;;;;;;;4.70;1.30;;;;;;;1.11;49.55;100830.95;108115;1288;22125;-66
2024/01/12 09:59:59;;;;;;;3.10;0.90;;;;;;;1.06;49.55;100831.48;108082;1288;21993;-64
2024/01/12 10:02:24;;;;;;;3.50;1.50;;;;;;;1.01;49.27;100829.40;108030;1288;21988;-63
2024/01/12 10:04:50;;;;;;;3.40;1.20;;;;;;;0.99;49.34;100835.04;107920;1286;21989;-65
2024/01/12 10:07:17;;;;;;;3.40;1.10;;;;;;;1.01;49.51;100840.30;107866;1288;21987;-63
2024/01/12 10:09:42;;;;;;;5.70;1.40;;;;;;;1.05;49.67;100841.65;108077;1288;23731;-64
2024/01/12 10:12:08;;;;;;;11.60;1.60;;;;;;;1.14;50.13;100848.48;108111;1288;21987;-63
2024/01/12 10:14:33;;;;;;;4.40;1.20;;;;;;;1.19;49.87;100848.50;107993;1288;21997;-63
2024/01/12 10:17:00;;;;;;;7.30;1.70;;;;;;;1.23;49.85;100852.10;108086;1288;21991;-63
2024/01/12 10:19:26;;;;;;;3.80;1.30;;;;;;;1.29;49.75;100847.45;108069;1288;22015;-63
2024/01/12 10:21:52;;;;;;;6.20;1.70;;;;;;;1.30;49.82;100853.20;108044;1288;21997;-64
2024/01/12 10:24:18;;;;;;;5.80;1.50;;;;;;;1.34;49.65;100846.23;108096;1288;21990;-63
2024/01/12 10:26:48;;;;;;;7.20;1.60;;;;;;;1.39;49.38;100850.02;108065;1288;21996;-63
2024/01/12 10:29:14;;;;;;;4.00;1.50;;;;;;;1.37;49.52;100846.81;108120;1288;21999;-63
2024/01/12 10:31:43;;;;;;;2.90;1.10;;;;;;;1.39;49.61;100845.17;108118;1288;21990;-63
2024/01/12 10:34:13;;;;;;;5.10;1.70;;;;;;;1.38;49.09;100847.04;108118;1282;21988;-62
2024/01/12 10:36:39;;;;;;;4.00;1.60;;;;;;;1.30;48.78;100845.43;108126;1287;21963;-64
2024/01/12 10:39:09;;;;;;;3.90;1.40;;;;;;;1.31;49.04;100843.55;108083;1287;22004;-63
2024/01/12 10:41:35;;;;;;;;;;;;;;;1.35;49.03;100841.93;107366;1288;1002793;-62
2024/01/12 10:44:04;;;;;;;4.40;1.30;;;;;;;1.37;49.15;100845.95;107198;1288;1002912;-61
2024/01/12 10:46:57;;;;;;;4.90;1.90;;;;;;;1.28;48.24;100848.82;108116;1287;22031;-61
2024/01/12 10:49:26;;;;;;;4.70;1.40;;;;;;;1.31;48.69;100841.63;108076;1286;21998;-61
2024/01/12 10:52:28;;;;;;;11.50;4.40;;;;;;;1.36;48.96;100842.14;107761;1288;22002;-62
2024/01/12 10:55:00;;;;;;;4.40;2.10;;;;;;;1.40;48.78;100848.13;107828;1293;22761;-62
2024/01/12 10:57:27;;;;;;;5.20;1.60;;;;;;;1.43;48.92;100846.00;108168;1288;22028;-62
2024/01/12 10:59:53;;;;;;;4.00;1.70;;;;;;;1.47;48.91;100845.42;108139;1288;21998;-62
2024/01/12 11:02:19;;;;;;;4.10;2.00;;;;;;;1.54;48.90;100853.94;107960;1288;22007;-61
2024/01/12 11:04:45;;;;;;;4.10;1.50;;;;;;;1.54;48.49;100857.06;107973;1288;21987;-61
2024/01/12 11:07:11;;;;;;;3.00;1.30;;;;;;;1.48;47.89;100853.42;107171;1281;1002420;-61
2024/01/12 11:09:36;;;;;;;8.00;1.90;;;;;;;1.53;48.80;100849.95;107181;1288;1002632;-61